الصفحة الرئيسية
METAR-TAF:

METAR-TAF

مطار :

وانجارتا, أستراليا

دائرة عرض: 36-24-57S, خط طول: 146-18-25E, ارتفاع: 154 متر

مراقبة الطقس الحالي

تاريخ ووقت الإصدار 18 دقيقة قبل الساعة 13:07UTC
ريح 4 عقدة من الجنوب الغربي
درجة الحرارة 6°درجة مئوية
الرطوبة 100%
ضغط 1026 hPa
الرؤية: 1400 متر
غيوم متفرقة على ارتفاع 200 قدم

METAR: YWGT 191307Z AUTO 23004KT 1400 // SCT002 06/06 Q1026

زمن: 23:25 (13:25 UTC)

توقعات

تاريخ ووقت الإصدار 2ساعات و 2 دقيقة قبل الساعة 11:23UTC
التوقعات صالحة من19 الساعة 11 UTC إلى 19 الساعة 14 UTC
ريح 5 عقدةمن اتجاهات متغيرة
الرؤية 10 كم أو أكثر
الغيوم لا تقل 1500 م ولا وجود لمزنة ركامية السحاب الأسود
نظرية الاحتمالات 40%
من 19 الساعة 11 UTC إلى 19 الساعة 14 UTC
الرؤية: 0500 متر
غيوم مفككة على ارتفاع 100 قدم
ضباب

TAF: YWGT 191123Z 1911/1914 VRB05KT CAVOK PROB40 1911/1914 0500 FG BKN001

أرصاد الطقس والتوقعات من أكثر من 4000 مطار (تقارير الطقس للمطار METAR والتنبؤ بالطقس بالمطارTAF).

المحطات المتاحة هي النقط الصفراء والحمراء على الخريطة.

حرك المؤشر فوق النقطة لمعرفة اسم المحطة.

ثم انقر لمعرفة أرصاد وتوقعات الطقس.

لتغيير الخارطة: اضغط على الأزرار الخضراء مع رمز الصليب الأسود للتكبير. على الزر الأخضر مع شرطة للتصغير، أو على الأسهم الخضراء للخرائط المجاورة.


METAR-TAF: